Sydney Airport Weather Forecast (YSSY – SYD)

METAR

TTF METAR YSSY 210800Z 22011KT 9999 FEW040 14/06 Q1022 RMK RF00.0/000.0 NOSIG

TAF

TAF YSSY 210504Z 2106/2212 23010KT CAVOK FM211400 29008KT CAVOK RMK T 16 14 12 09 Q 1020 1022 1023 1022

QNH 

1022

Temperature & Dew Point

14° DP6